Terminal Aerodrome Forecast
Issued by NWS

Home | Current Version | Previous Version | Text Only | Print | Product List | Glossary On
Versions: 1 2 3 4 5 6 7 8 9 10 11 12 13 14 15 16 17 18 19 20 21
000
FTUS44 KSJT 011700
TAFSOA
TAF
KSOA 011722Z 0118/0218 05007KT 6SM BR OVC003
     FM012000 04008KT P6SM OVC008
     FM020200 04008KT 4SM BR OVC006
     FM020700 04008KT 3SM -DZ BR OVC003=

USA.gov is the U.S. government's official web portal to all federal, state and local government web resources and services.